Time;durP1;ratioP1;P1;durP2;ratioP2;P2;SDS_P1;SDS_P2;PMS_P1;PMS_P2;Temp;Humidity;BMP_temperature;BMP_pressure;BME280_temperature;BME280_humidity;BME280_pressure;Samples;Min_cycle;Max_cycle;Signal;HPM_P1;HPM_P2
2022/05/03 00:00:14;;;;;;;7.07;5.00;;;;;;;9.87;65.26;101727.84;4994075;28;20095;-68
2022/05/03 00:02:57;;;;;;;7.20;4.50;;;;;;;9.87;65.28;101734.13;5009215;28;20553;-68
2022/05/03 00:05:33;;;;;;;6.63;4.45;;;;;;;9.75;65.42;101739.25;5011144;28;20049;-68
2022/05/03 00:08:14;;;;;;;8.77;4.75;;;;;;;9.70;66.18;101733.56;5012354;28;20121;-68
2022/05/03 00:10:53;;;;;;;6.00;4.90;;;;;;;9.67;65.78;101731.25;5012861;28;20029;-68
2022/05/03 00:13:28;;;;;;;5.60;4.72;;;;;;;9.67;65.91;101727.75;5012338;28;20417;-68
2022/05/03 00:15:55;;;;;;;6.05;4.40;;;;;;;9.64;66.37;101723.56;5012122;28;20030;-68
2022/05/03 00:18:21;;;;;;;6.10;4.65;;;;;;;9.71;65.56;101724.44;5012322;28;20382;-68
2022/05/03 00:20:48;;;;;;;5.32;4.82;;;;;;;9.65;65.24;101725.22;5012620;28;20041;-68
2022/05/03 00:23:15;;;;;;;5.78;4.35;;;;;;;9.64;65.80;101720.03;5012009;28;20033;-68
2022/05/03 00:25:41;;;;;;;7.82;4.68;;;;;;;9.60;65.56;101716.88;5012363;28;20034;-68
2022/05/03 00:28:07;;;;;;;8.25;4.35;;;;;;;9.64;65.84;101722.72;5012200;28;20457;-68
2022/05/03 00:30:34;;;;;;;6.68;4.13;;;;;;;9.70;65.04;101716.53;5012402;28;20029;-68
2022/05/03 00:33:02;;;;;;;6.78;4.63;;;;;;;9.64;66.16;101720.84;5011441;28;20045;-68
2022/05/03 00:35:27;;;;;;;5.05;4.55;;;;;;;9.62;65.53;101712.13;5011275;28;20036;-68
2022/05/03 00:37:53;;;;;;;6.85;4.28;;;;;;;9.65;64.39;101714.41;5012464;28;20034;-68
2022/05/03 00:40:20;;;;;;;5.35;4.28;;;;;;;9.64;65.29;101707.34;5012469;28;20041;-68
2022/05/03 00:42:52;;;;;;;9.85;4.93;;;;;;;9.56;65.41;101715.59;5010925;28;20116;-68
2022/05/03 00:45:42;;;;;;;6.15;4.63;;;;;;;9.50;65.98;101716.41;5012035;28;20025;-68
2022/05/03 00:48:39;;;;;;;5.05;4.30;;;;;;;9.52;64.65;101712.44;5013861;28;20037;-68
2022/05/03 00:51:14;;;;;;;6.50;4.38;;;;;;;9.52;65.76;101709.75;5016345;28;20487;-68
2022/05/03 00:54:03;;;;;;;6.75;4.40;;;;;;;9.54;65.42;101720.34;5015235;28;20113;-68
2022/05/03 00:56:46;;;;;;;7.07;4.50;;;;;;;9.53;64.68;101716.81;5015212;28;20050;-68
2022/05/03 00:59:30;;;;;;;7.57;4.90;;;;;;;9.53;65.21;101716.00;5015936;28;20045;-68
2022/05/03 01:02:04;;;;;;;6.13;4.60;;;;;;;9.51;65.78;101718.06;5012094;28;20038;-68
2022/05/03 01:05:10;;;;;;;6.47;4.45;;;;;;;9.51;65.22;101716.19;5015809;28;20029;-68
2022/05/03 01:07:47;;;;;;;7.05;4.57;;;;;;;9.36;65.58;101715.44;4994504;28;20442;-67
2022/05/03 01:10:34;;;;;;;9.15;4.70;;;;;;;9.37;65.16;101717.13;5015929;28;20484;-68
2022/05/03 01:13:19;;;;;;;6.75;4.70;;;;;;;9.23;65.70;101705.38;5015112;28;20037;-68
2022/05/03 01:15:52;;;;;;;6.75;4.35;;;;;;;9.19;66.75;101714.88;5015318;28;20096;-68
2022/05/03 01:18:25;;;;;;;6.15;4.60;;;;;;;9.11;66.06;101707.75;5015628;28;20033;-68
2022/05/03 01:20:54;;;;;;;6.78;4.70;;;;;;;9.07;67.08;101705.66;5014063;28;20087;-68
2022/05/03 01:23:42;;;;;;;8.52;5.20;;;;;;;9.07;67.40;101705.66;5015372;28;20036;-68
2022/05/03 01:26:42;;;;;;;6.85;4.88;;;;;;;9.15;67.23;101702.81;4995953;28;20041;-68
2022/05/03 01:29:33;;;;;;;5.40;4.43;;;;;;;9.17;66.95;101706.16;4997765;28;20030;-68
2022/05/03 01:32:00;;;;;;;5.38;4.60;;;;;;;9.17;67.48;101706.16;5014879;28;20026;-68
2022/05/03 01:34:27;;;;;;;9.15;4.82;;;;;;;9.14;67.83;101699.28;5015519;28;20385;-68
2022/05/03 01:37:15;;;;;;;7.05;5.10;;;;;;;9.17;66.47;101706.16;5014696;28;20488;-68
2022/05/03 01:40:04;;;;;;;5.78;5.15;;;;;;;9.02;67.33;101698.13;5015101;28;20030;-68
2022/05/03 01:42:54;;;;;;;7.28;4.85;;;;;;;8.96;67.15;101704.31;5015111;28;20053;-68
2022/05/03 01:45:31;;;;;;;5.90;4.75;;;;;;;8.93;67.48;101704.69;5015257;28;20037;-68
2022/05/03 01:51:38;;;;;;;9.23;5.00;;;;;;;8.89;67.83;101706.94;5014731;28;20159;-68
2022/05/03 01:54:32;;;;;;;6.53;4.88;;;;;;;8.91;67.02;101707.59;5015001;28;20066;-68
2022/05/03 01:57:08;;;;;;;7.90;4.93;;;;;;;8.89;68.34;101709.63;5014326;28;20038;-68
2022/05/03 01:59:48;;;;;;;9.00;5.47;;;;;;;8.83;67.54;101705.84;5014635;28;20045;-68
2022/05/03 02:02:39;;;;;;;7.85;4.95;;;;;;;8.86;68.44;101700.06;5009890;28;20474;-68
2022/05/03 02:05:08;;;;;;;8.38;4.70;;;;;;;8.89;67.54;101704.22;5014718;28;20046;-68
2022/05/03 02:08:02;;;;;;;5.07;4.55;;;;;;;8.82;67.55;101704.19;5013660;28;20116;-68
2022/05/03 02:10:56;;;;;;;6.03;5.10;;;;;;;8.85;66.94;101697.56;5007781;28;20050;-68
2022/05/03 02:16:29;;;;;;;8.85;4.95;;;;;;;8.74;67.37;101698.06;5014364;28;20065;-68
2022/05/03 02:19:14;;;;;;;7.30;4.75;;;;;;;8.78;67.29;101696.66;5014138;28;20041;-68
2022/05/03 02:21:56;;;;;;;5.82;4.53;;;;;;;8.73;67.23;101694.53;5014317;28;20064;-68
2022/05/03 02:24:38;;;;;;;6.45;4.85;;;;;;;8.77;67.06;101697.69;5010712;28;20088;-69
2022/05/03 02:27:08;;;;;;;6.53;4.85;;;;;;;8.70;66.47;101703.00;5011723;28;20381;-67
2022/05/03 02:29:43;;;;;;;8.10;5.17;;;;;;;8.67;67.30;101696.13;5000541;28;20066;-68
2022/05/03 02:32:11;;;;;;;6.05;4.78;;;;;;;8.63;66.68;101702.94;5013414;28;20113;-68
2022/05/03 02:34:49;;;;;;;7.18;4.80;;;;;;;8.59;66.85;101698.97;5014332;28;20033;-67
2022/05/03 02:37:21;;;;;;;5.63;4.60;;;;;;;8.51;66.66;101701.75;5008209;28;20091;-74
2022/05/03 02:40:08;;;;;;;6.15;4.45;;;;;;;8.54;67.17;101695.16;5013293;28;20034;-67
2022/05/03 02:42:34;;;;;;;6.93;4.60;;;;;;;8.47;67.23;101695.06;5013680;28;20392;-67
2022/05/03 02:45:00;;;;;;;6.93;4.60;;;;;;;8.50;67.12;101694.72;4996209;28;20370;-67
2022/05/03 02:47:55;;;;;;;5.03;4.50;;;;;;;8.47;66.97;101695.91;5014021;28;20029;-67
2022/05/03 02:50:28;;;;;;;8.65;4.90;;;;;;;8.44;66.99;101690.06;5013935;28;20042;-67
2022/05/03 02:53:02;;;;;;;7.82;4.55;;;;;;;8.37;67.55;101700.75;5013743;28;20089;-67
2022/05/03 02:55:46;;;;;;;5.95;4.45;;;;;;;8.28;67.85;101697.31;5013332;28;20424;-68
2022/05/03 02:58:25;;;;;;;5.47;4.65;;;;;;;8.24;67.69;101703.28;5013701;28;20088;-67
2022/05/03 03:04:09;;;;;;;4.95;4.25;;;;;;;8.21;67.93;101696.41;5013602;28;20140;-67
2022/05/03 03:06:38;;;;;;;6.20;4.80;;;;;;;8.08;67.95;101699.78;5013599;28;20052;-68
2022/05/03 03:09:06;;;;;;;5.80;4.43;;;;;;;8.06;68.12;101699.13;5013520;28;20030;-67
2022/05/03 03:11:52;;;;;;;6.78;4.43;;;;;;;8.14;67.44;101696.31;5013000;28;20080;-67
2022/05/03 03:14:48;;;;;;;7.38;4.55;;;;;;;8.18;67.71;101686.00;5013045;28;20037;-68
2022/05/03 03:17:20;;;;;;;6.95;4.90;;;;;;;8.15;67.83;101697.16;5013801;28;20034;-67
2022/05/03 03:20:07;;;;;;;6.43;4.60;;;;;;;8.18;67.96;101690.56;5013166;28;20030;-68
2022/05/03 03:22:44;;;;;;;5.68;4.97;;;;;;;8.06;68.58;101690.19;5013796;28;20037;-67
2022/05/03 03:25:11;;;;;;;7.75;4.60;;;;;;;7.94;68.99;101695.22;5013184;28;20030;-68
2022/05/03 03:27:38;;;;;;;8.65;4.80;;;;;;;7.99;68.30;101687.41;5013351;28;20022;-67
2022/05/03 03:30:06;;;;;;;7.00;4.80;;;;;;;7.98;68.31;101696.53;5012698;28;20038;-67
2022/05/03 03:32:33;;;;;;;5.45;4.82;;;;;;;7.92;68.67;101699.97;5013308;28;20473;-68
2022/05/03 03:34:59;;;;;;;5.57;4.80;;;;;;;8.02;68.13;101692.44;5012555;28;20397;-68
2022/05/03 03:37:28;;;;;;;5.45;4.45;;;;;;;7.95;68.87;101696.91;5013022;28;20029;-68
2022/05/03 03:39:53;;;;;;;5.78;4.90;;;;;;;7.85;68.49;101697.19;5013252;28;20034;-67
2022/05/03 03:42:19;;;;;;;6.68;4.68;;;;;;;7.77;68.82;101690.00;5012891;28;20040;-68
2022/05/03 03:44:46;;;;;;;7.95;5.00;;;;;;;7.79;69.17;101687.16;5012666;28;20030;-67
2022/05/03 03:47:12;;;;;;;5.85;5.25;;;;;;;7.78;69.61;101691.69;5013045;28;20033;-67
2022/05/03 03:49:38;;;;;;;5.07;4.53;;;;;;;7.80;68.82;101694.19;5012935;28;20033;-68
2022/05/03 03:52:04;;;;;;;6.05;4.53;;;;;;;7.85;69.59;101685.56;5012888;28;20559;-67
2022/05/03 03:54:30;;;;;;;6.00;4.90;;;;;;;7.82;69.52;101692.19;5011343;28;20113;-67
2022/05/03 03:56:57;;;;;;;8.13;4.75;;;;;;;7.77;69.46;101690.00;5011652;28;20061;-67
2022/05/03 03:59:24;;;;;;;6.72;5.10;;;;;;;7.73;69.15;101691.44;5013176;28;20485;-68
2022/05/03 04:01:50;;;;;;;5.82;4.70;;;;;;;7.73;70.29;101686.03;5009092;28;20401;-68
2022/05/03 04:04:21;;;;;;;8.50;5.00;;;;;;;7.67;70.57;101688.63;5012737;28;20033;-68
2022/05/03 04:06:47;;;;;;;;;;;;;;;7.89;67.68;101694.94;5012745;28;20037;-67
2022/05/03 04:09:13;;;;;;;7.45;4.90;;;;;;;7.76;68.93;101687.50;5012373;28;19920;-67
2022/05/03 04:11:45;;;;;;;7.65;5.43;;;;;;;7.74;70.33;101689.56;5012641;28;20042;-67
2022/05/03 04:14:12;;;;;;;6.72;4.90;;;;;;;7.74;69.61;101690.38;5012529;28;20109;-67
2022/05/03 04:16:37;;;;;;;7.63;5.32;;;;;;;7.76;69.83;101692.91;5012432;28;20088;-68
2022/05/03 04:19:03;;;;;;;7.55;5.38;;;;;;;7.73;69.49;101690.56;5012040;28;20030;-67
2022/05/03 04:21:28;;;;;;;6.63;5.20;;;;;;;7.75;69.84;101696.63;5012109;28;20036;-67
2022/05/03 04:23:54;;;;;;;9.80;5.15;;;;;;;7.64;70.66;101687.16;5016420;28;20113;-68
2022/05/03 04:26:19;;;;;;;10.52;5.13;;;;;;;7.57;70.23;101699.69;5016467;28;20037;-68
2022/05/03 04:28:44;;;;;;;9.65;5.35;;;;;;;7.46;70.81;101692.91;5016683;28;20033;-67
2022/05/03 04:31:09;;;;;;;8.00;5.43;;;;;;;7.37;71.24;101699.38;5016406;28;20057;-67
2022/05/03 04:33:35;;;;;;;10.25;5.57;;;;;;;7.44;71.00;101695.78;5016414;28;20113;-67
2022/05/03 04:36:00;;;;;;;8.43;5.10;;;;;;;7.48;71.26;101696.22;5015755;28;20044;-67
2022/05/03 04:38:25;;;;;;;9.05;5.22;;;;;;;7.56;71.11;101690.78;5016286;28;20121;-67
2022/05/03 04:41:00;;;;;;;10.20;5.75;;;;;;;7.53;71.67;101691.13;5016022;28;20037;-68
2022/05/03 04:43:26;;;;;;;8.23;5.57;;;;;;;7.63;71.31;101693.56;5016417;28;20176;-68
2022/05/03 04:45:51;;;;;;;8.70;5.70;;;;;;;7.59;71.72;101706.56;5015902;28;20045;-68
2022/05/03 04:48:17;;;;;;;13.93;5.95;;;;;;;7.63;71.37;101699.75;5031613;28;20037;-68
2022/05/03 04:50:43;;;;;;;8.10;5.35;;;;;;;7.71;71.29;101701.53;5016070;28;20428;-68
2022/05/03 04:53:08;;;;;;;10.10;5.78;;;;;;;7.61;71.54;101707.22;5015731;28;20083;-67
2022/05/03 04:55:38;;;;;;;11.05;6.10;;;;;;;7.65;71.62;101712.22;5016268;28;20534;-67
2022/05/03 04:58:03;;;;;;;13.18;5.60;;;;;;;7.66;71.95;101716.59;5015195;28;20018;-67
2022/05/03 05:00:28;;;;;;;10.75;5.95;;;;;;;7.65;71.77;101712.22;5014460;28;20061;-68
2022/05/03 05:02:54;;;;;;;16.95;6.20;;;;;;;7.64;71.29;101703.31;5012841;28;20065;-67
2022/05/03 05:05:19;;;;;;;14.35;6.25;;;;;;;7.58;71.52;101712.97;5015616;28;20057;-68
2022/05/03 05:07:44;;;;;;;19.60;6.75;;;;;;;7.57;71.83;101705.88;5015828;28;20041;-67
2022/05/03 05:10:26;;;;;;;14.40;6.18;;;;;;;7.60;72.15;101713.59;5016020;28;20056;-67
2022/05/03 05:12:53;;;;;;;21.08;6.47;;;;;;;7.62;72.68;101718.81;5015337;28;20106;-67
2022/05/03 05:15:18;;;;;;;12.43;6.60;;;;;;;7.69;72.04;101718.94;5015842;28;20045;-68
2022/05/03 05:17:44;;;;;;;10.20;6.60;;;;;;;7.68;71.77;101719.94;5015000;28;20026;-67
2022/05/03 05:20:09;;;;;;;8.30;6.20;;;;;;;7.69;72.12;101718.94;5015331;28;20033;-68
2022/05/03 05:22:34;;;;;;;8.73;6.38;;;;;;;7.69;72.86;101718.94;5015961;28;20025;-68
2022/05/03 05:25:00;;;;;;;12.02;6.97;;;;;;;7.69;72.84;101718.94;5015209;28;20026;-67
2022/05/03 05:27:25;;;;;;;9.77;6.65;;;;;;;7.71;73.54;101735.72;5015552;28;20030;-68
2022/05/03 05:29:50;;;;;;;10.90;6.78;;;;;;;7.78;72.59;101729.41;5014694;28;20034;-67
2022/05/03 05:32:16;;;;;;;10.70;7.25;;;;;;;7.74;72.73;101732.66;5014980;28;20418;-67
2022/05/03 05:34:41;;;;;;;17.20;7.00;;;;;;;7.78;72.92;101733.97;5014609;28;20117;-68
2022/05/03 05:37:06;;;;;;;8.75;6.80;;;;;;;7.74;72.75;101740.75;5014904;28;20053;-67
2022/05/03 05:39:32;;;;;;;8.88;7.13;;;;;;;7.74;72.48;101743.44;5015458;28;20480;-67
2022/05/03 05:41:59;;;;;;;8.77;7.13;;;;;;;7.77;72.93;101743.06;5014968;28;20030;-67
2022/05/03 05:44:25;;;;;;;11.38;7.80;;;;;;;7.90;73.86;101743.28;5015293;28;20037;-67
2022/05/03 05:46:52;;;;;;;11.95;7.20;;;;;;;7.92;72.67;101746.59;5014987;28;20026;-67
2022/05/03 05:49:17;;;;;;;8.18;6.85;;;;;;;7.97;72.80;101744.22;5014811;28;20030;-67
2022/05/03 05:51:43;;;;;;;14.43;7.47;;;;;;;7.95;72.85;101740.84;5015144;28;20114;-67
2022/05/03 05:54:09;;;;;;;10.60;6.88;;;;;;;7.95;73.06;101751.63;5014275;28;20030;-67
2022/05/03 05:56:34;;;;;;;15.00;7.18;;;;;;;8.02;73.19;101749.03;5014609;28;20523;-68
2022/05/03 05:58:59;;;;;;;13.35;7.50;;;;;;;8.04;73.17;101752.38;5014362;28;20456;-67
2022/05/03 06:01:45;;;;;;;10.75;7.10;;;;;;;8.07;73.00;101748.47;5011599;28;20053;-68
2022/05/03 06:04:10;;;;;;;10.35;6.78;;;;;;;8.17;72.38;101749.03;5014291;28;20452;-67
2022/05/03 06:06:36;;;;;;;13.77;7.68;;;;;;;8.23;72.31;101748.28;5014710;28;20046;-67
2022/05/03 06:09:05;;;;;;;13.25;7.65;;;;;;;8.21;72.29;101750.31;5013992;28;20034;-67
2022/05/03 06:11:31;;;;;;;10.00;7.35;;;;;;;8.28;71.13;101748.56;5014714;28;20041;-67
2022/05/03 06:13:56;;;;;;;9.45;7.18;;;;;;;8.38;71.51;101745.59;5014283;28;20042;-67
2022/05/03 06:16:22;;;;;;;9.05;6.85;;;;;;;8.47;70.60;101754.41;5014639;28;20037;-67
2022/05/03 06:18:47;;;;;;;10.65;7.18;;;;;;;8.53;70.16;101759.06;5014176;28;20069;-67
2022/05/03 06:21:13;;;;;;;7.95;6.72;;;;;;;8.61;69.49;101755.44;5014087;28;20040;-67
2022/05/03 06:23:39;;;;;;;7.20;6.25;;;;;;;8.66;69.16;101756.50;5014354;28;20037;-67
2022/05/03 06:26:05;;;;;;;8.43;6.22;;;;;;;8.73;69.09;101763.88;5029422;28;20041;-67
2022/05/03 06:28:33;;;;;;;11.35;6.22;;;;;;;8.79;68.10;101763.94;5014087;28;20076;-67
2022/05/03 06:30:59;;;;;;;10.27;6.43;;;;;;;8.85;67.80;101763.16;5014191;28;20032;-67
2022/05/03 06:33:24;;;;;;;11.02;5.95;;;;;;;8.89;67.07;101760.09;5029372;28;20037;-67
2022/05/03 06:35:49;;;;;;;12.70;6.25;;;;;;;8.92;67.41;101754.31;5014343;28;20030;-67
2022/05/03 06:38:14;;;;;;;8.10;5.95;;;;;;;9.05;67.35;101752.56;5013437;28;20084;-67
2022/05/03 06:40:40;;;;;;;7.57;5.80;;;;;;;9.14;67.77;101747.88;5007766;28;20488;-67
2022/05/03 06:43:06;;;;;;;8.52;5.70;;;;;;;9.19;68.01;101750.84;5023845;28;20508;-67
2022/05/03 06:45:31;;;;;;;6.57;5.35;;;;;;;9.32;66.71;101747.41;5012587;28;20026;-67
2022/05/03 06:47:56;;;;;;;8.95;5.57;;;;;;;9.40;67.94;101750.00;5028804;28;20056;-67
2022/05/03 06:50:22;;;;;;;8.65;5.70;;;;;;;9.44;65.57;101755.84;5019977;28;20466;-67
2022/05/03 06:52:48;;;;;;;6.72;5.30;;;;;;;9.54;64.34;101753.63;5013941;28;20041;-67
2022/05/03 06:55:13;;;;;;;6.97;4.97;;;;;;;9.58;61.23;101756.78;5013706;28;20357;-67
2022/05/03 06:57:39;;;;;;;7.57;4.72;;;;;;;9.59;61.21;101758.44;5013864;28;20022;-67
2022/05/03 07:00:06;;;;;;;8.75;5.10;;;;;;;9.70;61.26;101760.59;5013662;28;20029;-70
2022/05/03 07:02:32;;;;;;;7.78;5.00;;;;;;;9.74;61.68;101761.88;5010483;28;20042;-68
2022/05/03 07:04:59;;;;;;;8.00;4.43;;;;;;;9.82;59.01;101768.19;5013506;28;20133;-73
2022/05/03 07:07:25;;;;;;;4.88;3.67;;;;;;;9.90;55.70;101766.16;5012346;28;20040;-68
2022/05/03 07:09:50;;;;;;;7.00;4.38;;;;;;;10.00;57.97;101765.78;5012103;28;20388;-68
2022/05/03 07:12:15;;;;;;;7.55;4.47;;;;;;;10.08;57.05;101760.25;5008757;28;20050;-69
2022/05/03 07:14:41;;;;;;;5.28;3.70;;;;;;;10.20;56.20;101765.91;4994035;28;20109;-68
2022/05/03 07:17:06;;;;;;;4.40;3.20;;;;;;;10.29;54.49;101774.69;5009005;28;20030;-68
2022/05/03 07:24:59;;;;;;;4.88;3.80;;;;;;;10.48;53.52;101773.16;5012630;28;20091;-68
2022/05/03 07:27:24;;;;;;;4.00;3.30;;;;;;;10.54;53.53;101768.81;5013095;28;20038;-68
2022/05/03 07:29:50;;;;;;;4.35;3.30;;;;;;;10.60;52.90;101770.72;5013340;28;20067;-68
2022/05/03 07:32:15;;;;;;;4.40;3.50;;;;;;;10.62;52.19;101768.63;5012908;28;20176;-68
2022/05/03 07:34:40;;;;;;;4.32;3.60;;;;;;;10.70;51.04;101776.56;5013091;28;20033;-68
2022/05/03 07:37:06;;;;;;;5.50;3.40;;;;;;;10.78;51.54;101780.97;5012699;28;20584;-68
2022/05/03 07:39:31;;;;;;;5.18;3.00;;;;;;;10.82;49.58;101774.94;5012682;28;20034;-68
2022/05/03 07:41:57;;;;;;;4.55;3.20;;;;;;;10.86;49.63;101772.66;5011395;28;20030;-68
2022/05/03 07:44:22;;;;;;;4.05;2.83;;;;;;;10.94;48.41;101777.88;5012831;28;20040;-68
2022/05/03 07:46:48;;;;;;;6.78;3.25;;;;;;;10.97;48.82;101772.03;5012750;28;20113;-68
2022/05/03 07:49:13;;;;;;;5.32;3.38;;;;;;;11.04;49.73;101774.78;5012677;28;20040;-67
2022/05/03 07:51:41;;;;;;;6.38;3.72;;;;;;;11.10;48.80;101779.38;5012785;28;20034;-67
2022/05/03 07:54:08;;;;;;;6.35;3.40;;;;;;;11.17;48.35;101774.81;5027807;28;20034;-67
2022/05/03 07:56:33;;;;;;;4.15;3.15;;;;;;;11.26;48.16;101775.44;5011445;28;20030;-67
2022/05/03 07:58:59;;;;;;;5.63;3.92;;;;;;;11.28;48.37;101770.66;5012736;28;20445;-67
2022/05/03 08:01:24;;;;;;;4.43;3.78;;;;;;;11.39;48.06;101779.22;5013028;28;20108;-67
2022/05/03 08:03:49;;;;;;;4.68;3.22;;;;;;;11.44;48.72;101765.84;5032091;28;20431;-70
2022/05/03 08:06:14;;;;;;;5.63;3.72;;;;;;;11.45;47.88;101773.78;5031278;28;20045;-68
2022/05/03 08:08:41;;;;;;;8.50;3.35;;;;;;;11.55;49.64;101778.81;5032249;28;20060;-68
2022/05/03 08:11:06;;;;;;;5.38;3.78;;;;;;;11.61;49.78;101766.25;5026472;28;20022;-67
2022/05/03 08:13:31;;;;;;;5.20;3.85;;;;;;;11.66;49.04;101769.19;5026830;28;20052;-67
2022/05/03 08:15:57;;;;;;;5.68;3.80;;;;;;;11.74;48.73;101773.56;5031439;28;20064;-67
2022/05/03 08:18:22;;;;;;;5.57;3.83;;;;;;;11.83;49.80;101764.16;5029824;28;20124;-71
2022/05/03 08:20:47;;;;;;;6.97;3.97;;;;;;;11.88;48.00;101776.06;5031715;28;20108;-68
2022/05/03 08:23:12;;;;;;;5.80;3.90;;;;;;;11.94;49.57;101773.56;5031693;28;20021;-68
2022/05/03 08:25:38;;;;;;;5.78;4.68;;;;;;;12.02;49.58;101781.50;5032413;28;20030;-67
2022/05/03 08:28:05;;;;;;;8.05;4.60;;;;;;;12.05;48.80;101784.59;5031081;28;20021;-68
2022/05/03 08:30:30;;;;;;;5.15;4.47;;;;;;;12.05;49.73;101784.59;5031758;28;20094;-67
2022/05/03 08:32:55;;;;;;;6.55;4.57;;;;;;;12.15;48.67;101788.75;5032021;28;20029;-68
2022/05/03 08:35:24;;;;;;;6.25;4.60;;;;;;;12.22;49.29;101795.81;5032046;28;20056;-68
2022/05/03 08:43:17;;;;;;;9.70;5.10;;;;;;;12.32;50.68;101781.84;5031327;28;20052;-68
2022/05/03 08:45:48;;;;;;;8.82;5.00;;;;;;;12.41;50.72;101783.25;5031515;28;20396;-68
2022/05/03 08:48:16;;;;;;;7.18;5.13;;;;;;;12.45;49.79;101789.09;5031975;28;20105;-68
2022/05/03 08:50:42;;;;;;;10.82;5.57;;;;;;;12.51;50.17;101785.50;5031994;28;20076;-68
2022/05/03 08:53:07;;;;;;;9.02;6.05;;;;;;;12.56;50.58;101784.84;5032072;28;20029;-68
2022/05/03 08:55:33;;;;;;;10.38;6.20;;;;;;;12.64;49.94;101783.81;5032021;28;20522;-68
2022/05/03 08:57:58;;;;;;;8.18;6.38;;;;;;;12.72;50.00;101795.22;5031719;28;20037;-68
2022/05/03 09:00:24;;;;;;;8.05;6.35;;;;;;;12.76;51.21;101792.94;5030837;28;20021;-68
2022/05/03 09:02:55;;;;;;;7.22;5.90;;;;;;;12.80;49.71;101788.72;5044480;28;20514;-68
2022/05/03 09:05:22;;;;;;;8.30;6.32;;;;;;;12.81;50.21;101776.81;5030004;28;20481;-68
2022/05/03 09:07:59;;;;;;;8.18;6.00;;;;;;;12.90;50.59;101780.94;5032138;28;20041;-69
2022/05/03 09:10:31;;;;;;;9.95;6.28;;;;;;;12.97;51.38;101780.06;5035322;28;20072;-68
2022/05/03 09:13:11;;;;;;;6.82;5.90;;;;;;;13.06;51.35;101781.50;5035695;28;20033;-68
2022/05/03 09:15:37;;;;;;;8.15;5.95;;;;;;;13.14;51.40;101785.81;5035561;28;20040;-68
2022/05/03 09:18:02;;;;;;;8.48;6.47;;;;;;;13.20;51.55;101779.50;5035498;28;20029;-68
2022/05/03 09:26:12;;;;;;;9.65;6.32;;;;;;;13.38;51.81;101790.47;5035305;28;20100;-68
2022/05/03 09:29:03;;;;;;;9.85;6.25;;;;;;;13.42;52.28;101782.72;5034780;28;20147;-68
2022/05/03 09:31:41;;;;;;;8.98;6.15;;;;;;;13.56;52.97;101792.44;5035054;28;20048;-68
2022/05/03 09:34:22;;;;;;;6.90;5.70;;;;;;;13.62;53.37;101782.56;5033645;28;20040;-68
2022/05/03 09:36:51;;;;;;;7.28;6.10;;;;;;;13.69;51.63;101788.75;5035086;28;20096;-68
2022/05/03 09:39:28;;;;;;;9.38;5.72;;;;;;;13.76;52.92;101783.28;5034704;28;20473;-67
2022/05/03 09:42:09;;;;;;;8.43;6.05;;;;;;;13.81;53.42;101780.69;5034879;28;20021;-69
2022/05/03 09:44:40;;;;;;;7.00;6.10;;;;;;;13.93;52.83;101778.91;5034796;28;20033;-67
2022/05/03 09:47:09;;;;;;;9.70;6.13;;;;;;;14.00;52.42;101787.84;5033135;28;20516;-68
2022/05/03 09:49:40;;;;;;;7.80;5.90;;;;;;;14.08;53.39;101775.81;5035028;28;20029;-68
2022/05/03 09:52:09;;;;;;;8.97;6.53;;;;;;;14.13;54.82;101772.41;5034833;28;20108;-68
2022/05/03 09:54:52;;;;;;;7.05;6.07;;;;;;;14.23;53.21;101778.19;5034610;28;20350;-68
2022/05/03 09:57:22;;;;;;;9.18;6.03;;;;;;;14.30;53.51;101773.50;5034087;28;20049;-68
2022/05/03 09:59:48;;;;;;;10.75;6.50;;;;;;;14.36;53.00;101769.03;5034983;28;20136;-67
2022/05/03 10:02:17;;;;;;;8.30;6.30;;;;;;;14.38;52.05;101772.34;5030775;28;20057;-68
2022/05/03 10:04:44;;;;;;;12.80;6.22;;;;;;;14.46;53.36;101774.78;5034363;28;20025;-68
2022/05/03 10:07:09;;;;;;;7.82;6.65;;;;;;;14.47;52.21;101772.88;5034308;28;20420;-67
2022/05/03 10:09:35;;;;;;;10.93;6.85;;;;;;;14.43;52.43;101768.94;5034583;28;20029;-67
2022/05/03 10:12:02;;;;;;;10.90;6.47;;;;;;;14.58;52.34;101769.38;5034145;28;20030;-67
2022/05/03 10:14:27;;;;;;;8.10;6.68;;;;;;;14.62;51.83;101770.63;5033936;28;20025;-67
2022/05/03 10:22:42;;;;;;;8.95;6.00;;;;;;;14.66;52.38;101770.97;5031793;28;20044;-67
2022/05/03 10:25:08;;;;;;;5.97;5.20;;;;;;;14.68;51.91;101769.69;5031630;28;20037;-68
2022/05/03 10:27:56;;;;;;;7.82;5.70;;;;;;;14.65;51.69;101759.25;5032455;28;20041;-68
2022/05/03 10:30:23;;;;;;;7.28;5.93;;;;;;;14.67;51.58;101759.03;5033554;28;20036;-68
2022/05/03 10:33:19;;;;;;;10.23;6.03;;;;;;;14.91;51.97;101762.69;5034127;28;20030;-68
2022/05/03 10:35:48;;;;;;;11.48;6.55;;;;;;;14.97;52.16;101756.28;5033998;28;20033;-67
2022/05/03 10:38:14;;;;;;;10.95;7.15;;;;;;;15.01;51.91;101760.22;5033553;28;20437;-68
2022/05/03 10:40:44;;;;;;;8.27;6.88;;;;;;;15.05;51.67;101749.69;5032947;28;20030;-67
2022/05/03 10:43:11;;;;;;;8.00;6.47;;;;;;;15.11;51.82;101743.28;5033778;28;20522;-68
2022/05/03 10:45:58;;;;;;;8.02;5.68;;;;;;;15.31;51.09;101753.06;5034118;28;20030;-67
2022/05/03 10:48:28;;;;;;;7.97;5.47;;;;;;;15.47;51.16;101757.81;5034006;28;20037;-67
2022/05/03 10:51:02;;;;;;;7.60;5.78;;;;;;;15.48;51.45;101748.59;5034132;28;20121;-67
2022/05/03 10:53:32;;;;;;;7.15;6.05;;;;;;;15.56;51.51;101745.50;5033295;28;20029;-67
2022/05/03 10:56:19;;;;;;;7.88;5.43;;;;;;;15.72;50.52;101745.88;5033520;28;20543;-68
2022/05/03 10:58:47;;;;;;;10.30;6.05;;;;;;;15.77;50.07;101746.81;5033622;28;20029;-67
2022/05/03 11:01:20;;;;;;;10.68;6.38;;;;;;;15.74;49.83;101744.53;5029924;28;20049;-67
2022/05/03 11:03:48;;;;;;;9.23;6.18;;;;;;;15.67;50.98;101743.84;5033703;28;20029;-67
2022/05/03 11:06:16;;;;;;;6.63;5.70;;;;;;;15.52;49.81;101741.59;5032777;28;20065;-68
2022/05/03 11:11:54;;;;;;;8.50;5.60;;;;;;;15.73;50.62;101736.59;5032795;28;20081;-68
2022/05/03 11:14:21;;;;;;;7.28;5.35;;;;;;;15.99;52.66;101729.84;5032976;28;20030;-68
2022/05/03 11:17:01;;;;;;;8.10;5.55;;;;;;;16.14;50.73;101723.91;5033261;28;20025;-68
2022/05/03 11:19:26;;;;;;;5.88;5.28;;;;;;;16.34;50.16;101720.75;5032822;28;20037;-68
2022/05/03 11:21:51;;;;;;;6.82;5.50;;;;;;;16.37;48.77;101731.19;5033557;28;20029;-68
2022/05/03 11:24:24;;;;;;;9.43;5.53;;;;;;;16.35;49.77;101722.41;5032908;28;20040;-71
2022/05/03 11:26:52;;;;;;;6.18;5.03;;;;;;;16.33;47.97;101724.53;5032183;28;20061;-68
2022/05/03 11:29:18;;;;;;;7.38;5.18;;;;;;;16.44;48.13;101722.84;5032787;28;20036;-68
2022/05/03 11:31:50;;;;;;;6.90;4.88;;;;;;;16.56;50.25;101715.44;5032478;28;20025;-69
2022/05/03 11:34:18;;;;;;;6.20;4.85;;;;;;;16.69;48.64;101710.75;5032939;28;20117;-68
2022/05/03 11:36:46;;;;;;;6.38;4.72;;;;;;;16.78;47.95;101704.63;5015590;28;20125;-68
2022/05/03 11:39:12;;;;;;;7.10;5.22;;;;;;;16.99;47.95;101714.06;5032877;28;20031;-68
2022/05/03 11:41:39;;;;;;;8.13;6.07;;;;;;;17.24;48.98;101701.91;5012849;28;20084;-68
2022/05/03 11:44:05;;;;;;;7.47;6.65;;;;;;;17.18;47.99;101703.72;5013177;28;20040;-70
2022/05/03 11:46:30;;;;;;;9.00;6.57;;;;;;;17.08;48.95;101698.06;5012918;28;20037;-68
2022/05/03 11:49:02;;;;;;;9.38;6.32;;;;;;;16.98;48.95;101704.22;5013099;28;20474;-68
2022/05/03 11:57:13;;;;;;;9.68;6.43;;;;;;;16.34;49.38;101698.06;5032819;28;20072;-68
2022/05/03 11:59:42;;;;;;;7.13;6.13;;;;;;;16.16;50.12;101691.72;5032527;28;20029;-68
2022/05/03 12:02:32;;;;;;;8.18;5.90;;;;;;;16.11;49.61;101692.44;5029020;28;20608;-68
2022/05/03 12:05:07;;;;;;;9.85;6.00;;;;;;;16.08;49.69;101687.47;5026054;28;20135;-68
2022/05/03 12:07:42;;;;;;;11.88;8.20;;;;;;;16.28;49.44;101692.50;5032398;28;20080;-68
2022/05/03 12:10:27;;;;;;;9.60;7.03;;;;;;;16.40;48.86;101687.00;5032363;28;20105;-68
2022/05/03 12:13:09;;;;;;;7.15;4.93;;;;;;;16.42;48.96;101690.31;5032562;28;20472;-68
2022/05/03 12:15:36;;;;;;;;;;;;;;;16.50;48.55;101691.00;5032666;28;20163;-68
2022/05/03 12:18:15;;;;;;;4.95;4.18;;;;;;;16.39;48.14;101690.78;5031128;28;19913;-68
2022/05/03 12:21:03;;;;;;;6.00;4.30;;;;;;;16.35;48.91;101677.88;5031158;28;20041;-68
2022/05/03 12:23:31;;;;;;;6.57;4.72;;;;;;;16.32;47.50;101681.09;5032345;28;20076;-68
2022/05/03 12:25:59;;;;;;;10.38;6.80;;;;;;;16.40;48.59;101673.34;5032083;28;20116;-70